Main page
METAR-TAF:

METAR-TAF

Airports :

Kyzylorda Airport

Kyzylorda, Kazakhstan

latitude: 44-51N, longitude: 065-30E, elevation: 129 m

Current weather observation

The report was made 1 hour and 0 minutes ago, at 21:00 UTC
Wind 12 kt from the Southwest
Temperature 10°C
Humidity 82%
Pressure 1015 hPa
Visibility 10 km or more
Scattered clouds at a height of 3100 ft, Cumulonimbus.

METAR: UAOO 012100Z 23006MPS 9999 SCT031CB 10/07 Q1015 NOSIG RMK QFE749/0999

Time: 03:00 (22:00 UTC)

Forecast

The report was made 2 hours and 0 minutes ago, at 20:00 UTC
Forecast valid from 01 at 21 UTC to 02 at 06 UTC
Wind 12 kt from the West/Southwest
Visibility 10 km or more
Broken clouds at a height of 2000 ft
Overcast at a height of 6600 ft

TAF: UAOO 012000Z 0121/0206 24006MPS 9999 BKN020 OVC066

Weather observations and forecasts of more than 4000 airports (METAR and TAF reports).

The available stations are represented by yellow and red dots on the map.

Hover mouse over dot to see the name of the station.

Then click to see weather observations and forecasts.

To change the map : click on the green buttons with a black cross to zoom in, on the green button with a dash to zoom out, or on the green arrows for adjacent maps.


METAR-TAF: